createdAt,value
2023-04-23T00:02:29.137Z,50.0
2023-04-23T00:07:35.224Z,49.0
2023-04-23T00:12:41.585Z,49.5
2023-04-23T00:17:47.653Z,49.0
2023-04-23T00:28:00.086Z,51.0
2023-04-23T00:33:06.340Z,50.5
2023-04-23T00:38:11.501Z,51.0
2023-04-23T00:43:17.785Z,50.0
2023-04-23T00:48:23.915Z,48.5
2023-04-23T00:53:29.158Z,48.0
2023-04-23T00:58:35.351Z,48.0
2023-04-23T01:03:41.711Z,47.0
2023-04-23T01:08:47.771Z,45.0
2023-04-23T01:13:54.000Z,43.5
2023-04-23T01:19:00.193Z,43.0
2023-04-23T01:24:06.410Z,42.0
2023-04-23T01:29:12.614Z,41.0
2023-04-23T01:34:18.821Z,40.0
2023-04-23T01:39:25.021Z,39.0
2023-04-23T01:44:31.224Z,39.0
2023-04-23T01:49:37.435Z,38.0
2023-04-23T01:54:43.786Z,36.0
2023-04-23T01:59:49.846Z,36.0
2023-04-23T02:04:56.066Z,36.0
2023-04-23T02:10:02.391Z,33.5
2023-04-23T02:15:08.492Z,32.0
2023-04-23T02:20:14.774Z,32.0
2023-04-23T02:25:20.901Z,32.0
2023-04-23T02:30:27.114Z,34.0
2023-04-23T02:35:33.406Z,34.0
2023-04-23T02:40:38.582Z,33.0
2023-04-23T02:45:44.756Z,32.0
2023-04-23T02:50:49.988Z,33.0
2023-04-23T02:55:56.197Z,32.5
2023-04-23T03:01:02.467Z,32.0
2023-04-23T03:06:08.623Z,32.0
2023-04-23T03:11:14.812Z,32.0
2023-04-23T03:16:21.089Z,31.5
2023-04-23T03:21:27.228Z,32.0
2023-04-23T03:26:33.452Z,31.0
2023-04-23T03:31:39.659Z,30.0
2023-04-23T03:36:45.861Z,30.0
2023-04-23T03:41:52.089Z,30.0
2023-04-23T03:46:58.274Z,29.0
2023-04-23T03:52:04.491Z,28.0
2023-04-23T03:57:10.696Z,28.0
2023-04-23T04:02:17.000Z,28.0
2023-04-23T04:07:23.112Z,27.0
2023-04-23T04:12:29.320Z,28.0
2023-04-23T04:17:35.556Z,26.0
2023-04-23T04:22:41.737Z,27.0
2023-04-23T04:27:47.952Z,26.0
2023-04-23T04:32:54.220Z,25.0
2023-04-23T04:37:59.387Z,25.0
2023-04-23T04:43:05.605Z,24.0
2023-04-23T04:48:10.851Z,23.0
2023-04-23T04:53:17.034Z,23.0
2023-04-23T04:58:23.239Z,22.0
2023-04-23T05:03:29.616Z,21.5
2023-04-23T05:08:35.659Z,21.5
2023-04-23T05:13:41.867Z,21.0
2023-04-23T05:18:48.099Z,20.0
2023-04-23T05:23:54.517Z,21.0
2023-04-23T05:29:00.537Z,20.0
2023-04-23T05:34:06.724Z,20.0
2023-04-23T05:39:12.901Z,19.0
2023-04-23T05:44:19.108Z,19.0
2023-04-23T05:49:25.316Z,20.0
2023-04-23T05:54:31.518Z,19.0
2023-04-23T05:59:37.733Z,20.0
2023-04-23T06:04:44.561Z,19.0
2023-04-23T06:09:50.151Z,19.0
2023-04-23T06:14:56.370Z,18.0
2023-04-23T06:20:02.573Z,17.5
2023-04-23T06:25:08.785Z,17.0
2023-04-23T06:30:14.978Z,17.0
2023-04-23T06:35:20.247Z,16.0
2023-04-23T06:40:26.427Z,15.0
2023-04-23T06:45:32.643Z,15.0
2023-04-23T06:50:38.842Z,14.0
2023-04-23T06:55:45.044Z,13.0
2023-04-23T07:00:51.339Z,12.0
2023-04-23T07:05:57.505Z,12.0
2023-04-23T07:11:03.707Z,11.0
2023-04-23T07:16:09.972Z,11.0
2023-04-23T07:21:16.234Z,10.0
2023-04-23T07:26:22.339Z,9.0
2023-04-23T07:31:28.603Z,9.0
2023-04-23T07:36:34.846Z,9.0
2023-04-23T07:41:40.966Z,9.0
2023-04-23T07:46:47.202Z,8.0
2023-04-23T07:51:53.392Z,8.0
2023-04-23T07:56:59.588Z,7.0
2023-04-23T08:02:05.877Z,6.0
2023-04-23T08:07:12.013Z,6.0
2023-04-23T08:12:18.216Z,5.0
2023-04-23T08:17:24.444Z,5.0
2023-04-23T08:22:29.658Z,4.0
2023-04-23T08:27:35.869Z,4.0
2023-04-23T08:32:41.153Z,4.0
2023-04-23T08:37:47.318Z,4.0
2023-04-23T08:42:52.562Z,3.0
2023-04-23T08:48:01.529Z,3.0
2023-04-23T08:53:04.973Z,3.0
2023-04-23T08:58:11.165Z,2.0
2023-04-23T09:03:17.470Z,2.0
2023-04-23T09:08:23.588Z,2.0
2023-04-23T09:13:29.809Z,3.0
2023-04-23T09:18:36.013Z,2.0
2023-04-23T09:23:42.212Z,2.0
2023-04-23T09:28:50.073Z,2.0
2023-04-23T09:33:54.685Z,2.0
2023-04-23T09:39:00.863Z,1.0
2023-04-23T09:44:07.049Z,2.0
2023-04-23T09:49:13.255Z,1.0
2023-04-23T09:54:19.461Z,2.0
2023-04-23T09:59:36.116Z,2.0
2023-04-23T10:04:32.067Z,2.0
2023-04-23T10:09:38.089Z,1.0
2023-04-23T10:14:44.296Z,2.0
2023-04-23T10:19:50.505Z,1.5
2023-04-23T10:24:56.734Z,1.0
2023-04-23T10:30:03.200Z,1.0
2023-04-23T10:35:07.176Z,1.0
2023-04-23T10:40:13.404Z,1.0
2023-04-23T10:45:24.782Z,1.0
2023-04-23T10:50:25.814Z,1.0
2023-04-23T10:55:32.019Z,1.0
2023-04-23T11:00:38.253Z,1.0
2023-04-23T11:05:44.437Z,2.0
2023-04-23T11:10:50.644Z,2.0
2023-04-23T11:15:56.890Z,2.0
2023-04-23T11:21:03.069Z,1.0
2023-04-23T11:26:09.280Z,1.0
2023-04-23T11:31:15.482Z,1.0
2023-04-23T11:41:27.899Z,1.0
2023-04-23T11:46:34.145Z,1.0
2023-04-23T11:51:40.329Z,1.0
2023-04-23T11:56:46.525Z,1.0
2023-04-23T12:01:52.750Z,1.0
2023-04-23T12:06:59.038Z,1.0
2023-04-23T12:12:05.153Z,1.0
2023-04-23T12:17:11.368Z,1.0
2023-04-23T12:22:16.592Z,1.0
2023-04-23T12:27:22.818Z,1.0
2023-04-23T12:32:28.068Z,1.0
2023-04-23T12:37:34.255Z,1.0
2023-04-23T12:42:40.470Z,1.0
2023-04-23T12:47:46.698Z,1.0
2023-04-23T12:52:52.884Z,1.0
2023-04-23T13:03:05.422Z,1.0
2023-04-23T13:08:11.505Z,1.0
2023-04-23T13:13:17.716Z,1.0
2023-04-23T13:18:23.936Z,1.0
2023-04-23T13:23:30.129Z,1.0
2023-04-23T13:28:36.353Z,1.0
2023-04-23T13:33:42.545Z,1.0
2023-04-23T13:38:48.767Z,1.0
2023-04-23T13:43:54.974Z,1.0
2023-04-23T13:49:01.258Z,1.0
2023-04-23T13:54:07.392Z,1.0
2023-04-23T13:59:20.166Z,1.0
2023-04-23T14:04:19.833Z,1.0
2023-04-23T14:09:26.033Z,1.0
2023-04-23T14:14:32.213Z,1.0
2023-04-23T14:19:38.436Z,1.0
2023-04-23T14:24:43.667Z,1.0
2023-04-23T14:29:49.870Z,1.0
2023-04-23T14:34:55.108Z,1.0
2023-04-23T14:40:01.315Z,1.0
2023-04-23T14:45:06.558Z,1.0
2023-04-23T14:50:12.784Z,0.5
2023-04-23T14:55:18.966Z,1.0
2023-04-23T15:00:25.178Z,1.0
2023-04-23T15:05:31.383Z,1.0
2023-04-23T15:10:37.608Z,1.0
2023-04-23T15:15:44.982Z,1.0
2023-04-23T15:20:50.015Z,1.0
2023-04-23T15:25:56.226Z,1.0
2023-04-23T15:31:02.443Z,1.0
2023-04-23T15:36:08.690Z,1.0
2023-04-23T15:41:14.861Z,1.0
2023-04-23T15:51:27.262Z,1.0
2023-04-23T15:56:33.474Z,1.0
2023-04-23T16:01:39.738Z,1.0
2023-04-23T16:06:45.890Z,1.0
2023-04-23T16:11:52.104Z,2.0
2023-04-23T16:16:58.381Z,1.0
2023-04-23T16:22:04.517Z,1.0
2023-04-23T16:27:10.729Z,1.0
2023-04-23T16:32:16.929Z,2.0
2023-04-23T16:37:22.222Z,2.0
2023-04-23T16:42:28.369Z,2.0
2023-04-23T16:47:34.583Z,2.0
2023-04-23T16:52:40.793Z,1.0
2023-04-23T16:57:46.018Z,1.0
2023-04-23T17:02:52.399Z,2.0
2023-04-23T17:07:58.443Z,2.0
2023-04-23T17:13:04.665Z,2.0
2023-04-23T17:18:12.452Z,2.0
2023-04-23T17:23:17.062Z,2.0
2023-04-23T17:28:23.284Z,2.0
2023-04-23T17:33:29.550Z,2.0
2023-04-23T17:38:35.691Z,2.0
2023-04-23T17:43:41.893Z,2.0
2023-04-23T17:48:48.120Z,2.0
2023-04-23T17:53:54.317Z,2.0
2023-04-23T17:59:00.578Z,2.0
2023-04-23T18:04:07.069Z,2.0
2023-04-23T18:09:12.937Z,2.0
2023-04-23T18:14:19.146Z,2.0
2023-04-23T18:19:25.354Z,2.0
2023-04-23T18:24:31.556Z,2.0
2023-04-23T18:29:37.768Z,2.0
2023-04-23T18:34:43.986Z,2.0
2023-04-23T18:39:50.207Z,2.0
2023-04-23T18:44:55.471Z,2.0
2023-04-23T18:50:01.680Z,2.0
2023-04-23T18:55:07.899Z,2.0
2023-04-23T19:00:13.118Z,2.0
2023-04-23T19:05:19.360Z,2.0
2023-04-23T19:10:25.536Z,2.0
2023-04-23T19:15:31.741Z,2.0
2023-04-23T19:20:37.949Z,3.0
2023-04-23T19:25:44.196Z,2.0
2023-04-23T19:30:50.394Z,1.0
2023-04-23T19:35:56.587Z,1.0
2023-04-23T19:41:02.811Z,0.0
2023-04-23T19:46:09.025Z,0.0
2023-04-23T19:51:15.239Z,0.0
2023-04-23T19:56:21.453Z,0.0
2023-04-23T20:01:27.787Z,0.0
2023-04-23T20:06:33.888Z,0.0
2023-04-23T20:11:40.115Z,0.0
2023-04-23T20:16:46.458Z,0.0
2023-04-23T20:21:52.503Z,0.0
2023-04-23T20:26:58.768Z,0.0
2023-04-23T20:32:04.948Z,0.0
2023-04-23T20:37:11.172Z,0.0
2023-04-23T20:42:17.346Z,0.0
2023-04-23T20:47:22.603Z,1.0
2023-04-23T20:52:28.781Z,1.0
2023-04-23T20:57:34.992Z,1.0
2023-04-23T21:02:40.342Z,2.0
2023-04-23T21:07:46.447Z,3.0
2023-04-23T21:12:52.645Z,2.0
2023-04-23T21:17:58.890Z,3.0
2023-04-23T21:23:05.066Z,3.0
2023-04-23T21:28:11.263Z,3.0
2023-04-23T21:33:17.495Z,3.0
2023-04-23T21:38:23.675Z,3.0
2023-04-23T21:43:29.886Z,3.0
2023-04-23T21:48:36.086Z,3.0
2023-04-23T21:53:42.293Z,3.0
2023-04-23T21:58:48.521Z,3.0
2023-04-23T22:03:54.838Z,4.0
2023-04-23T22:09:00.941Z,4.0
2023-04-23T22:14:07.128Z,4.0
2023-04-23T22:19:13.349Z,5.0
2023-04-23T22:24:19.617Z,5.0
2023-04-23T22:29:25.756Z,6.0
2023-04-23T22:34:31.968Z,7.0
2023-04-23T22:39:38.177Z,7.0
2023-04-23T22:44:44.375Z,7.0
2023-04-23T22:49:49.610Z,7.0
2023-04-23T22:54:55.898Z,7.0
2023-04-23T23:00:01.071Z,8.0
2023-04-23T23:05:07.274Z,7.0
2023-04-23T23:10:13.480Z,7.0
2023-04-23T23:15:19.695Z,7.0
2023-04-23T23:20:25.915Z,8.0
2023-04-23T23:25:32.107Z,8.0
2023-04-23T23:30:38.319Z,8.0
2023-04-23T23:35:44.533Z,7.0
2023-04-23T23:40:50.727Z,7.0
2023-04-23T23:45:56.933Z,6.0
2023-04-23T23:51:03.152Z,6.0
2023-04-23T23:56:09.368Z,5.0
